createdAt,value
2019-04-16T00:00:25.719Z,99.90
2019-04-16T00:02:57.894Z,99.90
2019-04-16T00:05:37.313Z,99.90
2019-04-16T00:08:39.705Z,99.90
2019-04-16T00:11:36.983Z,99.90
2019-04-16T00:14:33.818Z,99.90
2019-04-16T00:17:04.970Z,99.90
2019-04-16T00:19:36.879Z,99.90
2019-04-16T00:22:32.741Z,99.90
2019-04-16T00:25:08.741Z,99.90
2019-04-16T00:27:43.465Z,99.90
2019-04-16T00:30:37.742Z,99.90
2019-04-16T00:33:10.817Z,99.90
2019-04-16T00:35:46.415Z,99.90
2019-04-16T01:03:11.666Z,99.90
2019-04-16T01:05:42.703Z,99.90
2019-04-16T01:08:29.972Z,99.90
2019-04-16T01:11:37.367Z,99.90
2019-04-16T01:14:33.506Z,99.90
2019-04-16T01:17:05.753Z,99.90
2019-04-16T01:20:01.466Z,99.90
2019-04-16T01:22:51.888Z,99.90
2019-04-16T01:25:23.333Z,99.90
2019-04-16T01:28:13.531Z,99.90
2019-04-16T01:31:21.768Z,99.90
2019-04-16T01:34:30.373Z,99.90
2019-04-16T01:37:13.941Z,99.90
2019-04-16T01:42:57.397Z,99.90
2019-04-16T01:45:29.877Z,99.90
2019-04-16T01:48:01.711Z,99.90
2019-04-16T01:50:44.341Z,99.90
2019-04-16T01:57:07.475Z,99.90
2019-04-16T02:00:32.248Z,99.90
2019-04-16T02:03:29.227Z,99.90
2019-04-16T02:06:01.364Z,99.90
2019-04-16T02:08:46.370Z,99.90
2019-04-16T02:11:18.231Z,99.90
2019-04-16T02:13:58.557Z,99.90
2019-04-16T02:16:29.849Z,99.90
2019-04-16T02:19:10.391Z,99.90
2019-04-16T02:21:55.442Z,99.90
2019-04-16T02:24:55.142Z,99.90
2019-04-16T02:28:05.541Z,99.90
2019-04-16T02:30:37.556Z,99.90
2019-04-16T02:36:26.778Z,99.90
2019-04-16T02:38:58.038Z,99.90
2019-04-16T02:41:47.133Z,99.90
2019-04-16T02:45:23.078Z,99.90
2019-04-16T02:47:58.999Z,99.90
2019-04-16T02:51:14.173Z,99.90
2019-04-16T02:53:54.408Z,99.90
2019-04-16T02:56:51.422Z,99.90
2019-04-16T03:00:00.646Z,99.90
2019-04-16T03:02:42.283Z,99.90
2019-04-16T03:05:43.582Z,99.90
2019-04-16T03:08:45.951Z,99.90
2019-04-16T03:11:45.611Z,99.90
2019-04-16T03:14:20.375Z,99.90
2019-04-16T03:20:15.617Z,99.90
2019-04-16T03:23:05.848Z,99.90
2019-04-16T03:25:36.097Z,99.90
2019-04-16T03:31:26.578Z,99.90
2019-04-16T03:37:39.473Z,99.90
2019-04-16T03:40:18.278Z,99.90
2019-04-16T03:43:22.712Z,99.90
2019-04-16T03:49:03.137Z,99.90
2019-04-16T03:51:35.422Z,99.90
2019-04-16T03:54:42.316Z,99.90
2019-04-16T03:57:13.454Z,99.90
2019-04-16T03:59:44.059Z,99.90
2019-04-16T04:02:42.107Z,99.90
2019-04-16T04:05:30.255Z,99.90
2019-04-16T04:08:01.381Z,99.90
2019-04-16T04:10:36.763Z,99.90
2019-04-16T04:13:05.150Z,99.90
2019-04-16T04:15:36.443Z,99.90
2019-04-16T04:18:31.782Z,99.90
2019-04-16T04:21:02.868Z,99.90
2019-04-16T04:24:00.611Z,99.90
2019-04-16T04:26:35.127Z,99.90
2019-04-16T04:29:28.018Z,99.90
2019-04-16T04:32:32.485Z,99.90
2019-04-16T04:35:05.652Z,99.90
2019-04-16T04:37:36.363Z,99.90
2019-04-16T04:40:07.712Z,99.90
2019-04-16T04:42:40.235Z,99.90
2019-04-16T04:45:11.013Z,99.90
2019-04-16T04:48:04.996Z,99.90
2019-04-16T04:51:06.718Z,99.90
2019-04-16T04:54:04.215Z,99.90
2019-04-16T04:57:01.985Z,99.90
2019-04-16T05:00:05.623Z,99.90
2019-04-16T05:03:01.169Z,99.90
2019-04-16T05:06:12.973Z,99.90
2019-04-16T05:09:09.579Z,99.90
2019-04-16T05:11:49.576Z,99.90
2019-04-16T05:17:27.060Z,99.90
2019-04-16T05:20:15.109Z,99.90
2019-04-16T05:22:50.523Z,99.90
2019-04-16T05:25:40.256Z,99.90
2019-04-16T05:28:15.314Z,99.90
2019-04-16T05:31:24.901Z,99.90
2019-04-16T05:34:00.474Z,99.90
2019-04-16T05:37:03.279Z,99.90
2019-04-16T05:39:34.427Z,99.90
2019-04-16T05:42:05.262Z,99.90
2019-04-16T05:45:14.073Z,99.90
2019-04-16T05:47:48.746Z,99.90
2019-04-16T05:50:18.660Z,99.90
2019-04-16T05:53:05.480Z,99.90
2019-04-16T05:55:43.403Z,99.90
2019-04-16T05:58:16.622Z,99.90
2019-04-16T06:01:13.701Z,99.90
2019-04-16T06:04:30.909Z,99.90
2019-04-16T06:07:04.967Z,99.90
2019-04-16T06:09:46.030Z,99.90
2019-04-16T06:12:17.350Z,99.90
2019-04-16T06:15:36.016Z,99.90
2019-04-16T06:18:24.251Z,99.90
2019-04-16T06:21:31.835Z,99.90
2019-04-16T06:25:08.290Z,99.90
2019-04-16T06:28:15.759Z,99.90
2019-04-16T06:31:39.062Z,99.90
2019-04-16T06:34:43.900Z,97.20
2019-04-16T06:37:26.451Z,91.30
2019-04-16T06:40:15.787Z,85.50
2019-04-16T06:42:54.238Z,80.00
2019-04-16T06:45:58.558Z,72.80
2019-04-16T06:49:34.468Z,68.30
2019-04-16T06:52:26.225Z,65.20
2019-04-16T06:55:15.836Z,66.20
2019-04-16T06:58:50.159Z,69.10
2019-04-16T07:01:28.440Z,66.80
2019-04-16T07:04:06.861Z,64.70
2019-04-16T07:07:09.611Z,61.70
2019-04-16T07:10:13.223Z,64.60
2019-04-16T07:13:09.931Z,65.20
2019-04-16T07:16:06.203Z,68.60
2019-04-16T07:18:55.282Z,70.30
2019-04-16T07:21:48.747Z,71.70
2019-04-16T07:40:34.369Z,68.90
2019-04-16T07:52:20.186Z,59.50
2019-04-16T08:06:18.825Z,64.80
2019-04-16T08:08:58.086Z,65.00
2019-04-16T08:18:22.034Z,62.90
2019-04-16T08:21:22.770Z,57.20
2019-04-16T08:24:01.950Z,60.10
2019-04-16T08:26:33.303Z,60.10
2019-04-16T08:29:04.509Z,57.80
2019-04-16T08:31:40.801Z,58.60
2019-04-16T08:34:12.124Z,58.90
2019-04-16T08:36:42.717Z,57.50
2019-04-16T08:39:15.156Z,57.20
2019-04-16T08:41:45.518Z,56.60
2019-04-16T08:44:16.247Z,56.10
2019-04-16T08:46:46.582Z,58.10
2019-04-16T08:49:22.043Z,56.20
2019-04-16T08:51:54.357Z,55.20
2019-04-16T08:54:25.504Z,54.80
2019-04-16T08:56:56.392Z,56.10
2019-04-16T08:59:27.061Z,55.50
2019-04-16T09:01:57.474Z,56.70
2019-04-16T09:04:28.398Z,56.90
2019-04-16T09:07:11.352Z,57.50
2019-04-16T09:09:57.252Z,57.80
2019-04-16T09:12:26.555Z,57.50
2019-04-16T09:14:57.603Z,57.30
2019-04-16T09:17:31.596Z,56.30
2019-04-16T09:20:23.728Z,56.40
2019-04-16T09:22:54.682Z,56.90
2019-04-16T09:25:45.832Z,55.20
2019-04-16T09:28:25.569Z,57.00
2019-04-16T09:31:24.758Z,54.20
2019-04-16T09:34:06.781Z,54.70
2019-04-16T09:37:08.919Z,53.80
2019-04-16T09:39:58.047Z,54.40
2019-04-16T09:42:28.640Z,53.90
2019-04-16T09:45:01.924Z,54.40
2019-04-16T09:47:33.462Z,54.60
2019-04-16T09:50:09.652Z,54.00
2019-04-16T09:52:45.651Z,53.60
2019-04-16T09:55:19.130Z,55.50
2019-04-16T09:57:50.637Z,54.70
2019-04-16T10:00:28.308Z,54.60
2019-04-16T10:03:05.996Z,51.50
2019-04-16T10:05:37.015Z,50.40
2019-04-16T10:08:09.591Z,50.00
2019-04-16T10:10:40.554Z,52.60
2019-04-16T10:13:11.597Z,55.20
2019-04-16T10:15:42.805Z,52.40
2019-04-16T10:18:13.422Z,52.00
2019-04-16T10:20:44.372Z,51.90
2019-04-16T10:23:21.799Z,51.90
2019-04-16T10:25:52.447Z,49.40
2019-04-16T10:28:53.571Z,49.80
2019-04-16T10:31:25.808Z,48.40
2019-04-16T10:33:56.818Z,47.70
2019-04-16T10:36:27.694Z,50.20
2019-04-16T10:39:12.941Z,50.80
2019-04-16T10:42:57.638Z,49.10
2019-04-16T10:45:59.585Z,46.40
2019-04-16T10:48:50.245Z,47.10
2019-04-16T10:51:30.194Z,47.40
2019-04-16T10:54:38.271Z,47.70
2019-04-16T10:57:24.826Z,46.50
2019-04-16T11:00:15.918Z,45.70
2019-04-16T11:02:53.448Z,45.60
2019-04-16T11:06:01.732Z,46.70
2019-04-16T11:08:33.794Z,49.00
2019-04-16T11:11:05.754Z,49.30
2019-04-16T11:13:40.786Z,48.20
2019-04-16T11:16:17.111Z,47.70
2019-04-16T11:18:48.376Z,48.10
2019-04-16T11:21:19.743Z,47.20
2019-04-16T11:23:50.396Z,48.20
2019-04-16T11:26:24.045Z,45.80
2019-04-16T11:28:56.025Z,46.50
2019-04-16T11:31:35.271Z,45.20
2019-04-16T11:34:07.740Z,45.50
2019-04-16T11:36:40.477Z,43.70
2019-04-16T11:39:12.182Z,43.50
2019-04-16T11:41:43.876Z,42.10
2019-04-16T11:44:17.204Z,45.30
2019-04-16T11:46:48.326Z,46.60
2019-04-16T11:49:21.311Z,47.80
2019-04-16T11:51:52.878Z,46.10
2019-04-16T11:54:25.159Z,44.70
2019-04-16T11:56:59.511Z,47.10
2019-04-16T11:59:30.495Z,47.60
2019-04-16T12:02:21.179Z,46.50
2019-04-16T12:05:13.741Z,45.60
2019-04-16T12:08:00.136Z,44.80
2019-04-16T12:10:55.338Z,43.10
2019-04-16T12:13:46.017Z,44.50
2019-04-16T12:16:35.999Z,42.90
2019-04-16T12:19:28.347Z,41.30
2019-04-16T12:22:11.732Z,42.20
2019-04-16T12:25:10.754Z,40.50
2019-04-16T12:27:49.504Z,42.20
2019-04-16T12:30:48.961Z,40.10
2019-04-16T12:33:33.155Z,40.90
2019-04-16T12:36:23.531Z,41.90
2019-04-16T12:39:08.234Z,42.20
2019-04-16T12:42:00.079Z,42.80
2019-04-16T12:44:45.764Z,42.60
2019-04-16T12:47:45.789Z,42.50
2019-04-16T12:50:35.628Z,41.40
2019-04-16T12:53:24.858Z,42.10
2019-04-16T12:56:13.899Z,38.70
2019-04-16T12:59:15.882Z,41.30
2019-04-16T13:02:18.105Z,42.80
2019-04-16T13:04:59.138Z,42.10
2019-04-16T13:07:47.548Z,44.10
2019-04-16T13:10:23.661Z,44.30
2019-04-16T13:13:22.535Z,44.60
2019-04-16T13:16:03.609Z,43.70
2019-04-16T13:18:41.317Z,43.80
2019-04-16T13:21:35.471Z,43.90
2019-04-16T13:24:15.476Z,44.10
2019-04-16T13:26:50.461Z,44.60
2019-04-16T13:29:28.968Z,43.80
2019-04-16T13:31:55.860Z,43.40
2019-04-16T13:34:26.659Z,43.30
2019-04-16T13:36:59.611Z,43.80
2019-04-16T13:39:49.983Z,42.10
2019-04-16T13:42:27.170Z,41.00
2019-04-16T13:45:15.750Z,40.60
2019-04-16T13:47:45.903Z,41.00
2019-04-16T13:50:43.257Z,40.90
2019-04-16T13:53:45.563Z,41.50
2019-04-16T13:56:30.467Z,40.50
2019-04-16T13:59:31.072Z,41.70
2019-04-16T14:02:17.791Z,41.10
2019-04-16T14:05:04.574Z,41.60
2019-04-16T14:07:55.145Z,41.30
2019-04-16T14:10:25.938Z,40.60
2019-04-16T14:13:01.623Z,41.10
2019-04-16T14:15:38.929Z,41.70
2019-04-16T14:18:09.519Z,42.40
2019-04-16T14:20:40.699Z,43.50
2019-04-16T14:23:11.860Z,43.70
2019-04-16T14:25:44.653Z,43.40
2019-04-16T14:28:18.038Z,43.50
2019-04-16T14:30:54.321Z,44.30
2019-04-16T14:33:43.571Z,44.60
2019-04-16T14:36:21.375Z,43.70
2019-04-16T14:39:54.968Z,43.00
2019-04-16T14:42:30.308Z,44.40
2019-04-16T14:45:33.089Z,42.90
2019-04-16T14:48:08.911Z,43.20
2019-04-16T14:50:39.653Z,42.20
2019-04-16T14:53:10.899Z,43.60
2019-04-16T14:55:59.764Z,43.50
2019-04-16T14:58:40.681Z,44.70
2019-04-16T15:04:40.151Z,45.30
2019-04-16T15:07:45.920Z,45.20
2019-04-16T15:10:35.828Z,45.70
2019-04-16T15:13:36.415Z,46.20
2019-04-16T15:16:29.634Z,45.80
2019-04-16T15:19:19.716Z,46.40
2019-04-16T15:22:38.535Z,44.80
2019-04-16T15:25:48.249Z,45.20
2019-04-16T15:28:49.008Z,46.10
2019-04-16T15:32:47.787Z,45.20
2019-04-16T15:36:09.297Z,44.80
2019-04-16T15:39:08.009Z,45.00
2019-04-16T15:41:58.131Z,44.50
2019-04-16T15:45:00.933Z,45.00
2019-04-16T15:47:58.616Z,45.00
2019-04-16T15:51:01.477Z,46.10
2019-04-16T15:54:09.171Z,47.10
2019-04-16T15:57:08.503Z,48.20
2019-04-16T15:59:49.685Z,46.70
2019-04-16T16:02:30.534Z,47.00
2019-04-16T16:05:24.113Z,46.80
2019-04-16T16:08:04.485Z,46.90
2019-04-16T16:10:45.360Z,47.00
2019-04-16T16:13:15.759Z,46.60
2019-04-16T16:15:47.436Z,46.20
2019-04-16T16:18:18.043Z,46.60
2019-04-16T16:20:49.077Z,46.60
2019-04-16T16:23:23.447Z,46.60
2019-04-16T16:25:54.577Z,47.50
2019-04-16T16:28:25.165Z,47.20
2019-04-16T16:30:56.196Z,47.00
2019-04-16T16:33:27.286Z,47.60
2019-04-16T16:35:59.882Z,47.80
2019-04-16T16:38:30.403Z,47.90
2019-04-16T16:41:01.532Z,48.30
2019-04-16T16:43:32.149Z,48.40
2019-04-16T16:46:25.296Z,48.70
2019-04-16T16:48:56.314Z,48.30
2019-04-16T16:51:27.391Z,48.40
2019-04-16T16:54:04.283Z,48.70
2019-04-16T16:56:42.502Z,48.80
2019-04-16T16:59:26.621Z,49.00
2019-04-16T17:02:08.949Z,49.30
2019-04-16T17:04:41.330Z,49.20
2019-04-16T17:07:12.464Z,49.50
2019-04-16T17:09:43.093Z,49.60
2019-04-16T17:12:16.599Z,50.10
2019-04-16T17:14:47.921Z,50.30
2019-04-16T17:17:18.958Z,50.70
2019-04-16T17:19:51.103Z,50.80
2019-04-16T17:22:21.792Z,51.00
2019-04-16T17:24:52.346Z,51.30
2019-04-16T17:27:23.773Z,51.20
2019-04-16T17:29:54.388Z,51.70
2019-04-16T17:32:25.282Z,51.90
2019-04-16T17:34:55.849Z,52.80
2019-04-16T17:37:28.647Z,52.80
2019-04-16T17:40:16.313Z,53.60
2019-04-16T17:42:49.131Z,54.10
2019-04-16T17:45:45.282Z,54.50
2019-04-16T17:48:33.205Z,54.80
2019-04-16T17:51:25.632Z,56.30
2019-04-16T17:54:14.625Z,57.20
2019-04-16T17:57:03.257Z,58.10
2019-04-16T17:59:40.983Z,59.90
2019-04-16T18:02:29.519Z,59.30
2019-04-16T18:05:07.527Z,59.90
2019-04-16T18:07:56.434Z,59.40
2019-04-16T18:10:48.719Z,58.90
2019-04-16T18:13:33.019Z,59.80
2019-04-16T18:16:31.979Z,60.00
2019-04-16T18:19:27.051Z,60.50
2019-04-16T18:22:06.786Z,60.80
2019-04-16T18:24:57.112Z,60.10
2019-04-16T18:27:36.031Z,60.50
2019-04-16T18:30:32.886Z,62.40
2019-04-16T18:33:22.928Z,62.90
2019-04-16T18:36:07.399Z,62.60
2019-04-16T18:39:06.685Z,63.30
2019-04-16T18:41:41.778Z,63.10
2019-04-16T18:44:30.256Z,62.60
2019-04-16T18:47:29.089Z,63.00
2019-04-16T18:50:02.705Z,62.10
2019-04-16T18:52:36.666Z,62.00
2019-04-16T18:55:07.481Z,62.00
2019-04-16T18:57:39.281Z,62.60
2019-04-16T19:00:28.653Z,63.20
2019-04-16T19:03:00.829Z,63.80
2019-04-16T19:05:31.775Z,63.90
2019-04-16T19:08:02.701Z,64.20
2019-04-16T19:10:33.985Z,64.80
2019-04-16T19:13:09.730Z,65.20
2019-04-16T19:15:36.958Z,65.80
2019-04-16T19:18:19.176Z,66.10
2019-04-16T19:21:16.770Z,66.40
2019-04-16T19:23:47.865Z,67.00
2019-04-16T19:26:18.808Z,67.40
2019-04-16T19:28:50.174Z,67.60
2019-04-16T19:31:23.171Z,67.50
2019-04-16T19:33:55.148Z,68.00
2019-04-16T19:36:27.575Z,68.70
2019-04-16T19:38:58.526Z,69.60
2019-04-16T19:41:29.464Z,69.70
2019-04-16T19:44:00.386Z,70.70
2019-04-16T19:46:38.799Z,71.80
2019-04-16T19:49:09.864Z,72.20
2019-04-16T19:51:41.286Z,72.40
2019-04-16T19:54:13.587Z,72.70
2019-04-16T19:56:51.121Z,72.60
2019-04-16T19:59:20.321Z,72.90
2019-04-16T20:01:56.015Z,72.90
2019-04-16T20:04:27.766Z,73.70
2019-04-16T20:07:00.909Z,74.60
2019-04-16T20:09:31.265Z,76.40
2019-04-16T20:12:05.165Z,78.10
2019-04-16T20:14:36.638Z,80.20
2019-04-16T20:17:07.595Z,80.40
2019-04-16T20:19:57.846Z,81.30
2019-04-16T20:22:30.279Z,82.70
2019-04-16T20:25:02.365Z,84.00
2019-04-16T20:27:36.200Z,85.60
2019-04-16T20:30:23.097Z,87.50
2019-04-16T20:32:55.540Z,90.60
2019-04-16T20:35:37.863Z,93.60
2019-04-16T20:38:09.421Z,98.10
2019-04-16T20:40:47.380Z,99.90
2019-04-16T20:43:19.137Z,99.90
2019-04-16T20:45:50.157Z,99.90
2019-04-16T20:48:26.025Z,99.90
2019-04-16T20:51:00.640Z,99.90
2019-04-16T20:53:31.827Z,99.90
2019-04-16T20:56:03.639Z,99.90
2019-04-16T20:58:34.788Z,99.90
2019-04-16T21:01:32.756Z,99.90
2019-04-16T21:04:05.723Z,99.90
2019-04-16T21:07:53.353Z,99.90
2019-04-16T21:10:26.802Z,99.90
2019-04-16T21:12:58.270Z,99.90
2019-04-16T21:15:29.517Z,99.90
2019-04-16T21:18:01.567Z,99.90
2019-04-16T21:20:36.585Z,99.90
2019-04-16T21:23:12.272Z,99.90
2019-04-16T21:25:45.946Z,99.90
2019-04-16T21:28:37.067Z,99.90
2019-04-16T21:31:17.230Z,99.90
2019-04-16T21:34:07.189Z,99.90
2019-04-16T21:36:43.270Z,99.90
2019-04-16T21:39:30.017Z,99.90
2019-04-16T21:42:05.441Z,99.90
2019-04-16T21:44:36.446Z,99.90
2019-04-16T21:47:07.656Z,99.90
2019-04-16T21:49:42.429Z,99.90
2019-04-16T21:52:11.511Z,99.90
2019-04-16T21:54:42.674Z,99.90
2019-04-16T21:57:14.233Z,99.90
2019-04-16T21:59:50.259Z,99.90
2019-04-16T22:02:25.732Z,99.90
2019-04-16T22:04:56.536Z,99.90
2019-04-16T22:07:27.351Z,99.90
2019-04-16T22:09:58.053Z,99.90
2019-04-16T22:12:29.307Z,99.90
2019-04-16T22:15:05.713Z,99.90
2019-04-16T22:17:37.104Z,99.90
2019-04-16T22:20:09.070Z,99.90
2019-04-16T22:22:40.347Z,99.90
2019-04-16T22:25:11.433Z,99.90
2019-04-16T22:27:42.572Z,99.90
2019-04-16T22:30:13.598Z,99.90
2019-04-16T22:32:46.183Z,99.90
2019-04-16T22:35:16.555Z,99.90
2019-04-16T22:37:46.867Z,99.90
2019-04-16T22:40:41.880Z,99.90
2019-04-16T22:43:39.683Z,99.90
2019-04-16T22:46:38.615Z,99.90
2019-04-16T22:49:18.689Z,99.90
2019-04-16T22:51:49.124Z,99.90
2019-04-16T22:54:20.882Z,99.90
2019-04-16T22:57:01.971Z,99.90
2019-04-16T22:59:31.940Z,99.90
2019-04-16T23:02:06.773Z,99.90
2019-04-16T23:04:38.569Z,99.90
2019-04-16T23:07:11.622Z,99.90
2019-04-16T23:09:45.750Z,99.90
2019-04-16T23:12:16.363Z,99.90
2019-04-16T23:14:47.470Z,99.90
2019-04-16T23:17:19.149Z,99.90
2019-04-16T23:19:51.690Z,99.90
2019-04-16T23:22:23.658Z,99.90
2019-04-16T23:24:59.594Z,99.90
2019-04-16T23:27:30.888Z,99.90
2019-04-16T23:30:01.525Z,99.90
2019-04-16T23:32:41.693Z,99.90
2019-04-16T23:35:12.470Z,99.90
2019-04-16T23:37:43.062Z,99.90
2019-04-16T23:40:13.393Z,99.90
2019-04-16T23:42:57.727Z,99.90
2019-04-16T23:45:47.558Z,99.90
2019-04-16T23:48:31.447Z,99.90
2019-04-16T23:51:07.522Z,99.90
2019-04-16T23:53:55.150Z,99.90
2019-04-16T23:56:42.798Z,99.90
2019-04-16T23:59:21.138Z,99.90
